Andrews, NC

6:32 PM EDT on September 23, 2014 (GMT -0400)
Calaboose Cellars | Change Station
CLOSE
Current Station
Personal Weather Station
Location: Andrews, NC
Elevation: 1800 ft
Nearby Weather Stations

Elev 1800 ft 35.20 °N, 83.81 °W | Updated 32 minutes ago

Overcast
Overcast
72.6 °F
Feels Like 73 °F
N
0.0
Wind Variable Wind from North
Gusts 0.0 mph

Today
High -- | Low -- °F
--% Chance of Precip.
Yesterday
High -- | Low -- °F
Precip. -- in
7:23 AM 7:30 PM
Waning Crescent, 0% visible
Pressure 30.22 in
Visibility 10.0 miles
Clouds Mostly Cloudy 4900 ft
Overcast 6500 ft
Heat Index 73 °F
Dew Point 66 °F
Humidity 79%
Rainfall 0.00 in
Snow Depth Not available.
UV 0 out of 12
Pollen 5.80 out of 12
Air Quality Not available.
Flu Activity Not available.
METAR KRHP 232215Z AUTO 23003KT 10SM BKN049 OVC065 22/14 A3022 RMK AO2 T02240137

More Conditions Fewer Conditions

Pressure 30.22 in
Visibility 10.0 miles
Clouds Mostly Cloudy 4900 ft
Overcast 6500 ft
Heat Index 73 °F
Dew Point 66 °F
Humidity 79%
Rainfall 0.00 in
Snow Depth Not available.
UV 0 out of 12
Pollen 5.80 out of 12
Air Quality Not available.
Flu Activity Not available.
METAR KRHP 232215Z AUTO 23003KT 10SM BKN049 OVC065 22/14 A3022 RMK AO2 T02240137

More Conditions Fewer Conditions

10-Day Weather Forecast

Almanac

Astronomy

Sep. 23, 2014 Rise Set
Actual Time 7:23 AM EDT 7:30 PM EDT
Civil Twilight 6:58 AM EDT 7:55 PM EDT
Nautical Twilight 6:29 AM EDT 8:25 PM EDT
Astronomical Twilight 5:59 AM EDT 8:55 PM EDT
Moon 6:47 AM EDT 7:09 PM EDT
Length of Visible Light 12h 57m
Length of Day
12h 06m
Tomorrow will be 2m 12s shorter.
Waning Crescent, 0% of the Moon is Illuminated
Today
Waning Crescent
Sep 24
New
Oct 1
First Quarter
Oct 8
Full
Oct 15
Last Quarter

Today's Extremes

State Highs State Lows

Community

WunderPhotos

Upload Photos

1,755,810 photos uploaded!

WunderBlogs® & News

Nearby

Snow Depth

Station Depth Elevation
No new snow has been reported.

Earthquake Activity

City Distance Mag. Time & Date
No recent earthquake activity has been reported nearby.
Minimum magnitude displayed is 2.5.

Coastal Water Temperatures

Place Temperature
No Stations Reporting

Nearby Weather Stations